127 км

Карта отелей и гостиниц, располагающихся рядом с аэропортом 127 км :

127 км Красноярский край 69° 22' 33.3588" N, 85° 25' 56.82" E
127 км Красноярский край 69° 22' 33.3588" N, 85° 25' 56.82" E
Код аэродрома ИКАО
HDT4
Код аэродрома RU
ХДТ4
Координаты
N69.37593° E085.43245°
Превышение над уровнем моря
33
Основная полоса
Курс магнитный
Длина основной ВПП
Ширина основной ВПП
Покрытие основной ВПП
Освещение ВПП
Тип: 
Вертодром
Класс аэродрома: 
Принадлежность: 
ГА
Статус: 
Действующий
Сайт: 
E-mail аэродрома: 
Страна: 
Россия
Регион: 
Красноярский край
Город: 
Дополнительная информация: 

Найти трансфер

С помощью этой формы Вы можете найти трансфер из аэропорта 127 км в город, аэропорт или вокзал:

Карта места

Javascript is required to view this map.

Погода в аэропортах:

Авиационная погода в Архангельске

Регион: 
Погода METAR: 
ULAA 190030Z 25003MPS 210V280 7000 -SN OVC005 M04/M04 Q1007 R26/490533 NOSIG RMK QBB150 QFE753/1005
Время наблюдения
2021-01-19T00:30:00Z
Температура C
-4.0
Точка росы
-4.0
Направление ветра
250
Скорость ветра (узлы)
6
Метео видимость
4.35
Явления погоды
-SN
Условия полета
IFR
Аэропорт подробнее: 

Авиационная погода в Москва - Шереметьево

Регион: 
Погода METAR: 
UUEE 190030Z 35001MPS 4900 -SN BR OVC010 M18/M21 Q1015 R24L/410257 R24C/410240 TEMPO 0300 FZFG
Время наблюдения
2021-01-19T00:30:00Z
Температура C
-18.0
Точка росы
-21.0
Направление ветра
350
Скорость ветра (узлы)
2
Метео видимость
3.04
Явления погоды
-SN BR
Условия полета
MVFR
Аэропорт подробнее: 

Авиационная погода в Якутске

Регион: 
Погода METAR: 
UEEE 190030Z 00000MPS 0500 R23L/0550N FG VV003 M53/M59 Q1022 R23L/450150 NOSIG RMK QBB090 QFE758
Время наблюдения
2021-01-19T00:30:00Z
Температура C
-53.0
Точка росы
-59.0
Направление ветра
0
Скорость ветра (узлы)
0
Метео видимость
0.31
Явления погоды
FG
Условия полета
LIFR
Аэропорт подробнее: 

Авиационная погода в Алматы

Регион: 
Погода METAR: 
UAAA 190030Z 16002MPS 1200 R23R/P2000N R23L/P2000D BR BKN100 M04/M07 Q1013 R23R/3///50 R23L/3///45 NOSIG
Время наблюдения
2021-01-19T00:30:00Z
Температура C
-4.0
Точка росы
-7.0
Направление ветра
160
Скорость ветра (узлы)
4
Метео видимость
0.75
Явления погоды
BR
Условия полета
LIFR
Аэропорт подробнее: